sensor_id;sensor_type;location;lat;lon;timestamp;temperature;humidity
19970;DHT22;10146;47.754;9.566;2023-11-21T00:00:16;8.60;99.90
19970;DHT22;10146;47.754;9.566;2023-11-21T00:02:43;8.50;99.90
19970;DHT22;10146;47.754;9.566;2023-11-21T00:05:10;8.50;99.90
19970;DHT22;10146;47.754;9.566;2023-11-21T00:07:37;8.50;99.90
19970;DHT22;10146;47.754;9.566;2023-11-21T00:10:03;8.50;99.90
19970;DHT22;10146;47.754;9.566;2023-11-21T00:12:30;8.50;99.90
19970;DHT22;10146;47.754;9.566;2023-11-21T00:14:57;8.40;99.90
19970;DHT22;10146;47.754;9.566;2023-11-21T00:17:23;8.40;99.90
19970;DHT22;10146;47.754;9.566;2023-11-21T00:19:48;8.40;99.90
19970;DHT22;10146;47.754;9.566;2023-11-21T00:22:14;8.30;99.90
19970;DHT22;10146;47.754;9.566;2023-11-21T00:24:41;8.30;99.90
19970;DHT22;10146;47.754;9.566;2023-11-21T00:27:07;8.20;99.90
19970;DHT22;10146;47.754;9.566;2023-11-21T00:29:32;8.10;99.90
19970;DHT22;10146;47.754;9.566;2023-11-21T00:31:58;8.20;99.90
19970;DHT22;10146;47.754;9.566;2023-11-21T00:34:23;8.10;99.90
19970;DHT22;10146;47.754;9.566;2023-11-21T00:36:49;8.10;99.90
19970;DHT22;10146;47.754;9.566;2023-11-21T00:39:15;8.10;99.90
19970;DHT22;10146;47.754;9.566;2023-11-21T00:41:41;8.10;99.90
19970;DHT22;10146;47.754;9.566;2023-11-21T00:44:07;8.10;99.90
19970;DHT22;10146;47.754;9.566;2023-11-21T00:46:33;8.10;99.90
19970;DHT22;10146;47.754;9.566;2023-11-21T00:48:58;8.10;99.90
19970;DHT22;10146;47.754;9.566;2023-11-21T00:51:24;8.00;99.90
19970;DHT22;10146;47.754;9.566;2023-11-21T00:53:50;8.00;99.90
19970;DHT22;10146;47.754;9.566;2023-11-21T00:56:16;8.00;99.90
19970;DHT22;10146;47.754;9.566;2023-11-21T00:58:41;8.00;99.90
19970;DHT22;10146;47.754;9.566;2023-11-21T01:01:15;8.00;99.90
19970;DHT22;10146;47.754;9.566;2023-11-21T01:03:40;8.00;99.90
19970;DHT22;10146;47.754;9.566;2023-11-21T01:06:06;7.90;99.90
19970;DHT22;10146;47.754;9.566;2023-11-21T01:08:33;7.90;99.90
19970;DHT22;10146;47.754;9.566;2023-11-21T01:10:59;8.00;99.90
19970;DHT22;10146;47.754;9.566;2023-11-21T01:13:24;7.90;99.90
19970;DHT22;10146;47.754;9.566;2023-11-21T01:15:55;7.90;99.90
19970;DHT22;10146;47.754;9.566;2023-11-21T01:18:21;7.90;99.90
19970;DHT22;10146;47.754;9.566;2023-11-21T01:20:46;7.90;99.90
19970;DHT22;10146;47.754;9.566;2023-11-21T01:23:13;7.90;99.90
19970;DHT22;10146;47.754;9.566;2023-11-21T01:25:38;7.80;99.90
19970;DHT22;10146;47.754;9.566;2023-11-21T01:28:04;7.80;99.90
19970;DHT22;10146;47.754;9.566;2023-11-21T01:30:29;7.70;99.90
19970;DHT22;10146;47.754;9.566;2023-11-21T01:32:55;7.70;99.90
19970;DHT22;10146;47.754;9.566;2023-11-21T01:35:22;7.70;99.90
19970;DHT22;10146;47.754;9.566;2023-11-21T01:37:47;7.70;99.90
19970;DHT22;10146;47.754;9.566;2023-11-21T01:40:13;7.60;99.90
19970;DHT22;10146;47.754;9.566;2023-11-21T01:42:40;7.70;99.90
19970;DHT22;10146;47.754;9.566;2023-11-21T01:45:06;7.60;99.90
19970;DHT22;10146;47.754;9.566;2023-11-21T01:47:33;7.60;99.90
19970;DHT22;10146;47.754;9.566;2023-11-21T01:50:01;7.50;99.90
19970;DHT22;10146;47.754;9.566;2023-11-21T01:52:30;7.60;99.90
19970;DHT22;10146;47.754;9.566;2023-11-21T01:54:56;7.60;99.90
19970;DHT22;10146;47.754;9.566;2023-11-21T01:57:22;7.60;99.90
19970;DHT22;10146;47.754;9.566;2023-11-21T01:59:49;7.70;99.90
19970;DHT22;10146;47.754;9.566;2023-11-21T02:02:15;7.60;99.90
19970;DHT22;10146;47.754;9.566;2023-11-21T02:04:41;7.60;99.90
19970;DHT22;10146;47.754;9.566;2023-11-21T02:07:07;7.60;99.90
19970;DHT22;10146;47.754;9.566;2023-11-21T02:09:32;7.60;99.90
19970;DHT22;10146;47.754;9.566;2023-11-21T02:12:04;7.60;99.90
19970;DHT22;10146;47.754;9.566;2023-11-21T02:14:30;7.60;99.90
19970;DHT22;10146;47.754;9.566;2023-11-21T02:16:56;7.60;99.90
19970;DHT22;10146;47.754;9.566;2023-11-21T02:19:26;7.60;99.90
19970;DHT22;10146;47.754;9.566;2023-11-21T02:21:53;7.60;99.90
19970;DHT22;10146;47.754;9.566;2023-11-21T02:24:22;7.60;99.90
19970;DHT22;10146;47.754;9.566;2023-11-21T02:26:48;7.50;99.90
19970;DHT22;10146;47.754;9.566;2023-11-21T02:29:14;7.50;99.90
19970;DHT22;10146;47.754;9.566;2023-11-21T02:31:43;7.50;99.90
19970;DHT22;10146;47.754;9.566;2023-11-21T02:34:17;7.50;99.90
19970;DHT22;10146;47.754;9.566;2023-11-21T02:36:43;7.50;99.90
19970;DHT22;10146;47.754;9.566;2023-11-21T02:39:10;7.50;99.90
19970;DHT22;10146;47.754;9.566;2023-11-21T02:41:37;7.50;99.90
19970;DHT22;10146;47.754;9.566;2023-11-21T02:44:05;7.50;99.90
19970;DHT22;10146;47.754;9.566;2023-11-21T02:46:32;7.50;99.90
19970;DHT22;10146;47.754;9.566;2023-11-21T02:49:02;7.60;99.90
19970;DHT22;10146;47.754;9.566;2023-11-21T02:51:28;7.50;99.90
19970;DHT22;10146;47.754;9.566;2023-11-21T02:53:53;7.50;99.90
19970;DHT22;10146;47.754;9.566;2023-11-21T02:56:19;7.50;99.90
19970;DHT22;10146;47.754;9.566;2023-11-21T02:58:45;7.50;99.90
19970;DHT22;10146;47.754;9.566;2023-11-21T03:01:11;7.60;99.90
19970;DHT22;10146;47.754;9.566;2023-11-21T03:03:37;7.60;99.90
19970;DHT22;10146;47.754;9.566;2023-11-21T03:06:05;7.60;99.90
19970;DHT22;10146;47.754;9.566;2023-11-21T03:08:31;7.60;99.90
19970;DHT22;10146;47.754;9.566;2023-11-21T03:10:57;7.60;99.90
19970;DHT22;10146;47.754;9.566;2023-11-21T03:13:23;7.60;99.90
19970;DHT22;10146;47.754;9.566;2023-11-21T03:15:48;7.60;99.90
19970;DHT22;10146;47.754;9.566;2023-11-21T03:18:14;7.60;99.90
19970;DHT22;10146;47.754;9.566;2023-11-21T03:20:40;7.60;99.90
19970;DHT22;10146;47.754;9.566;2023-11-21T03:23:05;7.60;99.90
19970;DHT22;10146;47.754;9.566;2023-11-21T03:25:31;7.50;99.90
19970;DHT22;10146;47.754;9.566;2023-11-21T03:27:56;7.50;99.90
19970;DHT22;10146;47.754;9.566;2023-11-21T03:30:22;7.40;99.90
19970;DHT22;10146;47.754;9.566;2023-11-21T03:32:47;7.50;99.90
19970;DHT22;10146;47.754;9.566;2023-11-21T03:35:13;7.50;99.90
19970;DHT22;10146;47.754;9.566;2023-11-21T03:37:39;7.50;99.90
19970;DHT22;10146;47.754;9.566;2023-11-21T03:40:07;7.50;99.90
19970;DHT22;10146;47.754;9.566;2023-11-21T03:42:34;7.50;99.90
19970;DHT22;10146;47.754;9.566;2023-11-21T03:45:00;7.40;99.90
19970;DHT22;10146;47.754;9.566;2023-11-21T03:47:29;7.40;99.90
19970;DHT22;10146;47.754;9.566;2023-11-21T03:49:54;7.30;99.90
19970;DHT22;10146;47.754;9.566;2023-11-21T03:52:20;7.30;99.90
19970;DHT22;10146;47.754;9.566;2023-11-21T03:54:45;7.30;99.90
19970;DHT22;10146;47.754;9.566;2023-11-21T03:57:11;7.30;99.90
19970;DHT22;10146;47.754;9.566;2023-11-21T03:59:40;7.20;99.90
19970;DHT22;10146;47.754;9.566;2023-11-21T04:02:06;7.20;99.90
19970;DHT22;10146;47.754;9.566;2023-11-21T04:04:33;7.10;99.90
19970;DHT22;10146;47.754;9.566;2023-11-21T04:06:59;7.10;99.90
19970;DHT22;10146;47.754;9.566;2023-11-21T04:09:25;7.10;99.90
19970;DHT22;10146;47.754;9.566;2023-11-21T04:11:51;7.10;99.90
19970;DHT22;10146;47.754;9.566;2023-11-21T04:14:17;7.10;99.90
19970;DHT22;10146;47.754;9.566;2023-11-21T04:16:42;7.10;99.90
19970;DHT22;10146;47.754;9.566;2023-11-21T04:19:08;7.10;99.90
19970;DHT22;10146;47.754;9.566;2023-11-21T04:21:37;7.10;99.90
19970;DHT22;10146;47.754;9.566;2023-11-21T04:24:03;7.10;99.90
19970;DHT22;10146;47.754;9.566;2023-11-21T04:26:29;7.10;99.90
19970;DHT22;10146;47.754;9.566;2023-11-21T04:28:55;7.10;99.90
19970;DHT22;10146;47.754;9.566;2023-11-21T04:31:20;7.10;99.90
19970;DHT22;10146;47.754;9.566;2023-11-21T04:33:46;7.10;99.90
19970;DHT22;10146;47.754;9.566;2023-11-21T04:36:12;7.10;99.90
19970;DHT22;10146;47.754;9.566;2023-11-21T04:38:37;7.20;99.90
19970;DHT22;10146;47.754;9.566;2023-11-21T04:41:03;7.20;99.90
19970;DHT22;10146;47.754;9.566;2023-11-21T04:43:29;7.20;99.90
19970;DHT22;10146;47.754;9.566;2023-11-21T04:45:55;7.10;99.90
19970;DHT22;10146;47.754;9.566;2023-11-21T04:48:20;7.10;99.90
19970;DHT22;10146;47.754;9.566;2023-11-21T04:50:46;7.20;99.90
19970;DHT22;10146;47.754;9.566;2023-11-21T04:53:12;7.20;99.90
19970;DHT22;10146;47.754;9.566;2023-11-21T04:55:41;7.20;99.90
19970;DHT22;10146;47.754;9.566;2023-11-21T04:58:07;7.10;99.90
19970;DHT22;10146;47.754;9.566;2023-11-21T05:00:34;7.10;99.90
19970;DHT22;10146;47.754;9.566;2023-11-21T05:02:59;7.10;99.90
19970;DHT22;10146;47.754;9.566;2023-11-21T05:05:26;7.10;99.90
19970;DHT22;10146;47.754;9.566;2023-11-21T05:07:52;7.10;99.90
19970;DHT22;10146;47.754;9.566;2023-11-21T05:10:19;7.10;99.90
19970;DHT22;10146;47.754;9.566;2023-11-21T05:12:45;7.10;99.90
19970;DHT22;10146;47.754;9.566;2023-11-21T05:15:14;7.10;99.90
19970;DHT22;10146;47.754;9.566;2023-11-21T05:17:44;7.10;99.90
19970;DHT22;10146;47.754;9.566;2023-11-21T05:20:11;7.10;99.90
19970;DHT22;10146;47.754;9.566;2023-11-21T05:22:38;7.10;99.90
19970;DHT22;10146;47.754;9.566;2023-11-21T05:25:04;7.10;99.90
19970;DHT22;10146;47.754;9.566;2023-11-21T05:27:30;7.20;99.90
19970;DHT22;10146;47.754;9.566;2023-11-21T05:29:56;7.10;99.90
19970;DHT22;10146;47.754;9.566;2023-11-21T05:32:25;7.20;99.90
19970;DHT22;10146;47.754;9.566;2023-11-21T05:34:52;7.10;99.90
19970;DHT22;10146;47.754;9.566;2023-11-21T05:37:18;7.20;99.90
19970;DHT22;10146;47.754;9.566;2023-11-21T05:39:43;7.20;99.90
19970;DHT22;10146;47.754;9.566;2023-11-21T05:42:09;7.20;99.90
19970;DHT22;10146;47.754;9.566;2023-11-21T05:44:37;7.20;99.90
19970;DHT22;10146;47.754;9.566;2023-11-21T05:47:02;7.20;99.90
19970;DHT22;10146;47.754;9.566;2023-11-21T05:49:29;7.20;99.90
19970;DHT22;10146;47.754;9.566;2023-11-21T05:51:55;7.10;99.90
19970;DHT22;10146;47.754;9.566;2023-11-21T05:54:21;7.10;99.90
19970;DHT22;10146;47.754;9.566;2023-11-21T05:56:47;7.10;99.90
19970;DHT22;10146;47.754;9.566;2023-11-21T05:59:13;7.00;99.90
19970;DHT22;10146;47.754;9.566;2023-11-21T06:01:38;7.10;99.90
19970;DHT22;10146;47.754;9.566;2023-11-21T06:04:05;7.10;99.90
19970;DHT22;10146;47.754;9.566;2023-11-21T06:06:30;7.20;99.90
19970;DHT22;10146;47.754;9.566;2023-11-21T06:08:57;7.20;99.90
19970;DHT22;10146;47.754;9.566;2023-11-21T06:11:22;7.20;99.90
19970;DHT22;10146;47.754;9.566;2023-11-21T06:13:50;7.20;99.90
19970;DHT22;10146;47.754;9.566;2023-11-21T06:16:15;7.20;99.90
19970;DHT22;10146;47.754;9.566;2023-11-21T06:18:44;7.10;99.90
19970;DHT22;10146;47.754;9.566;2023-11-21T06:21:10;7.10;99.90
19970;DHT22;10146;47.754;9.566;2023-11-21T06:23:36;7.10;99.90
19970;DHT22;10146;47.754;9.566;2023-11-21T06:26:01;7.00;99.90
19970;DHT22;10146;47.754;9.566;2023-11-21T06:28:27;7.00;99.90
19970;DHT22;10146;47.754;9.566;2023-11-21T06:30:52;7.00;99.90
19970;DHT22;10146;47.754;9.566;2023-11-21T06:33:18;7.00;99.90
19970;DHT22;10146;47.754;9.566;2023-11-21T06:35:44;7.00;99.90
19970;DHT22;10146;47.754;9.566;2023-11-21T06:38:10;7.00;99.90
19970;DHT22;10146;47.754;9.566;2023-11-21T06:40:36;7.00;99.90
19970;DHT22;10146;47.754;9.566;2023-11-21T06:43:01;7.10;99.90
19970;DHT22;10146;47.754;9.566;2023-11-21T06:45:27;7.10;99.90
19970;DHT22;10146;47.754;9.566;2023-11-21T06:47:53;7.10;99.90
19970;DHT22;10146;47.754;9.566;2023-11-21T06:50:19;7.10;99.90
19970;DHT22;10146;47.754;9.566;2023-11-21T06:52:44;7.10;99.90
19970;DHT22;10146;47.754;9.566;2023-11-21T06:55:10;7.20;99.90
19970;DHT22;10146;47.754;9.566;2023-11-21T06:57:36;7.20;99.90
19970;DHT22;10146;47.754;9.566;2023-11-21T07:00:02;7.20;99.90
19970;DHT22;10146;47.754;9.566;2023-11-21T07:02:28;7.20;99.90
19970;DHT22;10146;47.754;9.566;2023-11-21T07:04:54;7.20;99.90
19970;DHT22;10146;47.754;9.566;2023-11-21T07:07:20;7.30;99.90
19970;DHT22;10146;47.754;9.566;2023-11-21T07:09:45;7.30;99.90
19970;DHT22;10146;47.754;9.566;2023-11-21T07:12:11;7.30;99.90
19970;DHT22;10146;47.754;9.566;2023-11-21T07:14:37;7.30;99.90
19970;DHT22;10146;47.754;9.566;2023-11-21T07:17:04;7.30;99.90
19970;DHT22;10146;47.754;9.566;2023-11-21T07:19:30;7.30;99.90
19970;DHT22;10146;47.754;9.566;2023-11-21T07:21:56;7.40;99.90
19970;DHT22;10146;47.754;9.566;2023-11-21T07:24:22;7.40;99.90
19970;DHT22;10146;47.754;9.566;2023-11-21T07:26:48;7.40;99.90
19970;DHT22;10146;47.754;9.566;2023-11-21T07:29:14;7.50;99.90
19970;DHT22;10146;47.754;9.566;2023-11-21T07:31:40;7.50;99.90
19970;DHT22;10146;47.754;9.566;2023-11-21T07:34:06;7.50;99.90
19970;DHT22;10146;47.754;9.566;2023-11-21T07:36:33;7.60;99.90
19970;DHT22;10146;47.754;9.566;2023-11-21T07:38:59;7.60;99.90
19970;DHT22;10146;47.754;9.566;2023-11-21T07:41:25;7.70;99.90
19970;DHT22;10146;47.754;9.566;2023-11-21T07:43:51;7.70;99.90
19970;DHT22;10146;47.754;9.566;2023-11-21T07:46:16;7.70;99.90
19970;DHT22;10146;47.754;9.566;2023-11-21T07:48:43;7.70;99.90
19970;DHT22;10146;47.754;9.566;2023-11-21T07:51:10;7.70;99.90
19970;DHT22;10146;47.754;9.566;2023-11-21T07:53:36;7.70;99.90
19970;DHT22;10146;47.754;9.566;2023-11-21T07:56:06;7.70;99.90
19970;DHT22;10146;47.754;9.566;2023-11-21T07:58:31;7.70;99.90
19970;DHT22;10146;47.754;9.566;2023-11-21T08:00:59;7.70;99.90
19970;DHT22;10146;47.754;9.566;2023-11-21T08:03:25;7.70;99.90
19970;DHT22;10146;47.754;9.566;2023-11-21T08:05:52;7.80;99.90
19970;DHT22;10146;47.754;9.566;2023-11-21T08:08:18;7.80;99.90
19970;DHT22;10146;47.754;9.566;2023-11-21T08:10:44;7.80;99.90
19970;DHT22;10146;47.754;9.566;2023-11-21T08:13:13;7.80;99.90
19970;DHT22;10146;47.754;9.566;2023-11-21T08:15:42;7.80;99.90
19970;DHT22;10146;47.754;9.566;2023-11-21T08:18:11;7.80;99.90
19970;DHT22;10146;47.754;9.566;2023-11-21T08:20:38;7.90;99.90
19970;DHT22;10146;47.754;9.566;2023-11-21T08:23:05;7.90;99.90
19970;DHT22;10146;47.754;9.566;2023-11-21T08:25:34;8.00;99.90
19970;DHT22;10146;47.754;9.566;2023-11-21T08:28:00;8.00;99.90
19970;DHT22;10146;47.754;9.566;2023-11-21T08:30:27;8.00;99.90
19970;DHT22;10146;47.754;9.566;2023-11-21T08:32:55;8.00;99.90
19970;DHT22;10146;47.754;9.566;2023-11-21T08:35:24;8.00;99.90
19970;DHT22;10146;47.754;9.566;2023-11-21T08:37:51;8.00;99.90
19970;DHT22;10146;47.754;9.566;2023-11-21T08:40:18;8.10;99.90
19970;DHT22;10146;47.754;9.566;2023-11-21T08:42:44;8.00;99.90
19970;DHT22;10146;47.754;9.566;2023-11-21T08:45:11;8.00;99.90
19970;DHT22;10146;47.754;9.566;2023-11-21T08:47:38;8.00;99.90
19970;DHT22;10146;47.754;9.566;2023-11-21T08:50:05;8.10;99.90
19970;DHT22;10146;47.754;9.566;2023-11-21T08:52:33;8.10;99.90
19970;DHT22;10146;47.754;9.566;2023-11-21T08:54:59;8.00;99.90
19970;DHT22;10146;47.754;9.566;2023-11-21T08:57:28;8.10;99.90
19970;DHT22;10146;47.754;9.566;2023-11-21T08:59:53;8.10;99.90
19970;DHT22;10146;47.754;9.566;2023-11-21T09:02:26;8.10;99.90
19970;DHT22;10146;47.754;9.566;2023-11-21T09:04:52;8.20;99.90
19970;DHT22;10146;47.754;9.566;2023-11-21T09:07:18;8.20;99.90
19970;DHT22;10146;47.754;9.566;2023-11-21T09:09:46;8.30;99.90
19970;DHT22;10146;47.754;9.566;2023-11-21T09:12:12;8.40;99.90
19970;DHT22;10146;47.754;9.566;2023-11-21T09:14:38;8.40;99.90
19970;DHT22;10146;47.754;9.566;2023-11-21T09:17:04;8.40;99.90
19970;DHT22;10146;47.754;9.566;2023-11-21T09:19:39;8.50;99.90
19970;DHT22;10146;47.754;9.566;2023-11-21T09:22:05;8.40;99.90
19970;DHT22;10146;47.754;9.566;2023-11-21T09:24:31;8.50;99.90
19970;DHT22;10146;47.754;9.566;2023-11-21T09:26:57;8.50;99.90
19970;DHT22;10146;47.754;9.566;2023-11-21T09:29:23;8.60;99.90
19970;DHT22;10146;47.754;9.566;2023-11-21T09:31:48;8.70;99.90
19970;DHT22;10146;47.754;9.566;2023-11-21T09:34:16;8.70;99.90
19970;DHT22;10146;47.754;9.566;2023-11-21T09:36:45;8.70;99.90
19970;DHT22;10146;47.754;9.566;2023-11-21T09:39:10;8.70;99.90
19970;DHT22;10146;47.754;9.566;2023-11-21T09:41:51;8.80;99.90
19970;DHT22;10146;47.754;9.566;2023-11-21T09:44:25;8.80;99.90
19970;DHT22;10146;47.754;9.566;2023-11-21T09:46:54;8.90;99.90
19970;DHT22;10146;47.754;9.566;2023-11-21T09:49:23;9.00;99.90
19970;DHT22;10146;47.754;9.566;2023-11-21T09:51:55;9.10;99.90
19970;DHT22;10146;47.754;9.566;2023-11-21T09:54:22;9.20;99.90
19970;DHT22;10146;47.754;9.566;2023-11-21T09:56:49;9.20;99.90
19970;DHT22;10146;47.754;9.566;2023-11-21T09:59:15;9.10;99.90
19970;DHT22;10146;47.754;9.566;2023-11-21T10:01:42;9.10;99.90
19970;DHT22;10146;47.754;9.566;2023-11-21T10:04:09;9.00;99.90
19970;DHT22;10146;47.754;9.566;2023-11-21T10:06:40;8.90;99.90
19970;DHT22;10146;47.754;9.566;2023-11-21T10:09:12;8.90;99.90
19970;DHT22;10146;47.754;9.566;2023-11-21T10:11:42;8.90;99.90
19970;DHT22;10146;47.754;9.566;2023-11-21T10:14:12;8.90;99.90
19970;DHT22;10146;47.754;9.566;2023-11-21T10:16:40;9.00;99.90
19970;DHT22;10146;47.754;9.566;2023-11-21T10:19:09;9.10;99.90
19970;DHT22;10146;47.754;9.566;2023-11-21T10:21:35;9.10;99.90
19970;DHT22;10146;47.754;9.566;2023-11-21T10:24:02;9.10;99.90
19970;DHT22;10146;47.754;9.566;2023-11-21T10:26:28;9.20;99.90
19970;DHT22;10146;47.754;9.566;2023-11-21T10:29:01;9.20;99.90
19970;DHT22;10146;47.754;9.566;2023-11-21T10:31:30;9.30;99.90
19970;DHT22;10146;47.754;9.566;2023-11-21T10:34:19;9.30;99.90
19970;DHT22;10146;47.754;9.566;2023-11-21T10:36:45;9.40;99.90
19970;DHT22;10146;47.754;9.566;2023-11-21T10:39:21;9.50;99.90
19970;DHT22;10146;47.754;9.566;2023-11-21T10:41:49;9.50;99.90
19970;DHT22;10146;47.754;9.566;2023-11-21T10:44:17;9.60;99.90
19970;DHT22;10146;47.754;9.566;2023-11-21T10:46:52;9.60;99.90
19970;DHT22;10146;47.754;9.566;2023-11-21T10:49:24;9.70;99.90
19970;DHT22;10146;47.754;9.566;2023-11-21T10:51:54;9.70;99.90
19970;DHT22;10146;47.754;9.566;2023-11-21T10:54:26;9.80;99.90
19970;DHT22;10146;47.754;9.566;2023-11-21T10:56:57;9.80;99.90
19970;DHT22;10146;47.754;9.566;2023-11-21T10:59:28;9.80;99.90
19970;DHT22;10146;47.754;9.566;2023-11-21T11:01:54;9.80;99.90
19970;DHT22;10146;47.754;9.566;2023-11-21T11:04:23;9.70;99.90
19970;DHT22;10146;47.754;9.566;2023-11-21T11:06:54;9.70;99.90
19970;DHT22;10146;47.754;9.566;2023-11-21T11:09:20;9.70;99.90
19970;DHT22;10146;47.754;9.566;2023-11-21T11:11:46;9.60;99.90
19970;DHT22;10146;47.754;9.566;2023-11-21T11:14:13;9.70;99.90
19970;DHT22;10146;47.754;9.566;2023-11-21T11:16:40;9.70;99.90
19970;DHT22;10146;47.754;9.566;2023-11-21T11:19:11;9.60;99.90
19970;DHT22;10146;47.754;9.566;2023-11-21T11:21:53;9.70;99.90
19970;DHT22;10146;47.754;9.566;2023-11-21T11:24:58;9.70;99.90
19970;DHT22;10146;47.754;9.566;2023-11-21T11:27:40;9.80;99.90
19970;DHT22;10146;47.754;9.566;2023-11-21T11:33:06;10.00;99.90
19970;DHT22;10146;47.754;9.566;2023-11-21T11:36:02;10.10;99.90
19970;DHT22;10146;47.754;9.566;2023-11-21T11:38:33;10.20;99.90
19970;DHT22;10146;47.754;9.566;2023-11-21T11:41:04;10.20;99.90
19970;DHT22;10146;47.754;9.566;2023-11-21T11:43:31;10.40;99.90
19970;DHT22;10146;47.754;9.566;2023-11-21T11:45:59;10.40;99.90
19970;DHT22;10146;47.754;9.566;2023-11-21T11:48:25;10.60;99.90
19970;DHT22;10146;47.754;9.566;2023-11-21T11:51:10;10.60;99.90
19970;DHT22;10146;47.754;9.566;2023-11-21T11:53:42;10.60;99.90
19970;DHT22;10146;47.754;9.566;2023-11-21T11:56:28;10.50;99.90
19970;DHT22;10146;47.754;9.566;2023-11-21T11:59:00;10.60;99.90
19970;DHT22;10146;47.754;9.566;2023-11-21T12:01:28;10.50;99.90
19970;DHT22;10146;47.754;9.566;2023-11-21T12:07:00;10.60;99.90
19970;DHT22;10146;47.754;9.566;2023-11-21T12:09:32;10.50;99.90
19970;DHT22;10146;47.754;9.566;2023-11-21T12:11:58;10.40;99.90
19970;DHT22;10146;47.754;9.566;2023-11-21T12:14:24;10.20;99.90
19970;DHT22;10146;47.754;9.566;2023-11-21T12:16:50;10.20;99.90
19970;DHT22;10146;47.754;9.566;2023-11-21T12:19:17;10.10;99.90
19970;DHT22;10146;47.754;9.566;2023-11-21T12:21:43;10.10;99.90
19970;DHT22;10146;47.754;9.566;2023-11-21T12:24:14;9.80;99.90
19970;DHT22;10146;47.754;9.566;2023-11-21T12:26:40;9.70;99.90
19970;DHT22;10146;47.754;9.566;2023-11-21T12:29:06;9.50;99.90
19970;DHT22;10146;47.754;9.566;2023-11-21T12:31:33;9.50;99.90
19970;DHT22;10146;47.754;9.566;2023-11-21T12:34:00;9.50;99.90
19970;DHT22;10146;47.754;9.566;2023-11-21T12:36:26;9.50;99.90
19970;DHT22;10146;47.754;9.566;2023-11-21T12:38:51;9.50;99.90
19970;DHT22;10146;47.754;9.566;2023-11-21T12:41:17;9.50;99.90
19970;DHT22;10146;47.754;9.566;2023-11-21T12:43:43;9.40;99.90
19970;DHT22;10146;47.754;9.566;2023-11-21T12:46:10;9.30;99.90
19970;DHT22;10146;47.754;9.566;2023-11-21T12:48:42;9.30;99.90
19970;DHT22;10146;47.754;9.566;2023-11-21T12:51:09;9.30;99.90
19970;DHT22;10146;47.754;9.566;2023-11-21T12:53:37;9.20;99.90
19970;DHT22;10146;47.754;9.566;2023-11-21T12:56:13;9.10;99.90
19970;DHT22;10146;47.754;9.566;2023-11-21T12:58:44;9.10;99.90
19970;DHT22;10146;47.754;9.566;2023-11-21T13:01:13;9.00;99.90
19970;DHT22;10146;47.754;9.566;2023-11-21T13:03:45;9.00;99.90
19970;DHT22;10146;47.754;9.566;2023-11-21T13:06:16;9.00;99.90
19970;DHT22;10146;47.754;9.566;2023-11-21T13:08:44;9.00;99.90
19970;DHT22;10146;47.754;9.566;2023-11-21T13:11:11;9.10;99.90
19970;DHT22;10146;47.754;9.566;2023-11-21T13:13:41;9.00;99.90
19970;DHT22;10146;47.754;9.566;2023-11-21T13:16:08;8.90;99.90
19970;DHT22;10146;47.754;9.566;2023-11-21T13:18:35;8.80;99.90
19970;DHT22;10146;47.754;9.566;2023-11-21T13:21:09;8.80;99.90
19970;DHT22;10146;47.754;9.566;2023-11-21T13:23:41;8.70;99.90
19970;DHT22;10146;47.754;9.566;2023-11-21T13:26:07;8.70;99.90
19970;DHT22;10146;47.754;9.566;2023-11-21T13:28:35;8.70;99.90
19970;DHT22;10146;47.754;9.566;2023-11-21T13:31:02;8.70;99.90
19970;DHT22;10146;47.754;9.566;2023-11-21T13:33:34;8.60;99.90
19970;DHT22;10146;47.754;9.566;2023-11-21T13:36:04;8.70;99.90
19970;DHT22;10146;47.754;9.566;2023-11-21T13:38:33;8.80;99.90
19970;DHT22;10146;47.754;9.566;2023-11-21T13:41:00;9.00;99.90
19970;DHT22;10146;47.754;9.566;2023-11-21T13:43:26;9.00;99.90
19970;DHT22;10146;47.754;9.566;2023-11-21T13:45:54;9.10;99.90
19970;DHT22;10146;47.754;9.566;2023-11-21T13:48:33;9.20;99.90
19970;DHT22;10146;47.754;9.566;2023-11-21T13:51:14;9.40;99.90
19970;DHT22;10146;47.754;9.566;2023-11-21T13:53:51;9.60;99.90
19970;DHT22;10146;47.754;9.566;2023-11-21T13:56:18;9.80;99.90
19970;DHT22;10146;47.754;9.566;2023-11-21T13:58:51;9.90;99.90
19970;DHT22;10146;47.754;9.566;2023-11-21T14:01:21;10.00;99.90
19970;DHT22;10146;47.754;9.566;2023-11-21T14:04:00;10.00;99.90
19970;DHT22;10146;47.754;9.566;2023-11-21T14:06:38;10.10;99.90
19970;DHT22;10146;47.754;9.566;2023-11-21T14:09:18;10.20;99.90
19970;DHT22;10146;47.754;9.566;2023-11-21T14:11:55;10.20;99.90
19970;DHT22;10146;47.754;9.566;2023-11-21T14:14:26;10.20;99.90
19970;DHT22;10146;47.754;9.566;2023-11-21T14:16:53;10.20;99.90
19970;DHT22;10146;47.754;9.566;2023-11-21T14:19:21;10.10;99.90
19970;DHT22;10146;47.754;9.566;2023-11-21T14:21:47;9.90;99.90
19970;DHT22;10146;47.754;9.566;2023-11-21T14:24:16;9.50;99.90
19970;DHT22;10146;47.754;9.566;2023-11-21T14:26:45;9.20;99.90
19970;DHT22;10146;47.754;9.566;2023-11-21T14:29:12;9.10;99.90
19970;DHT22;10146;47.754;9.566;2023-11-21T14:31:40;9.00;99.90
19970;DHT22;10146;47.754;9.566;2023-11-21T14:34:07;8.90;99.90
19970;DHT22;10146;47.754;9.566;2023-11-21T14:36:33;8.80;99.90
19970;DHT22;10146;47.754;9.566;2023-11-21T14:38:59;8.70;99.90
19970;DHT22;10146;47.754;9.566;2023-11-21T14:41:24;8.70;99.90
19970;DHT22;10146;47.754;9.566;2023-11-21T14:43:51;8.70;99.90
19970;DHT22;10146;47.754;9.566;2023-11-21T14:46:16;8.60;99.90
19970;DHT22;10146;47.754;9.566;2023-11-21T14:48:45;8.40;99.90
19970;DHT22;10146;47.754;9.566;2023-11-21T14:51:24;8.40;99.90
19970;DHT22;10146;47.754;9.566;2023-11-21T14:53:59;8.40;99.90
19970;DHT22;10146;47.754;9.566;2023-11-21T14:56:35;8.50;99.90
19970;DHT22;10146;47.754;9.566;2023-11-21T14:59:03;8.50;99.90
19970;DHT22;10146;47.754;9.566;2023-11-21T15:01:41;8.40;99.90
19970;DHT22;10146;47.754;9.566;2023-11-21T15:04:21;8.30;99.90
19970;DHT22;10146;47.754;9.566;2023-11-21T15:07:05;8.20;99.90
19970;DHT22;10146;47.754;9.566;2023-11-21T15:09:32;8.10;99.90
19970;DHT22;10146;47.754;9.566;2023-11-21T15:11:58;8.10;99.90
19970;DHT22;10146;47.754;9.566;2023-11-21T15:14:32;7.90;99.90
19970;DHT22;10146;47.754;9.566;2023-11-21T15:16:59;7.90;99.90
19970;DHT22;10146;47.754;9.566;2023-11-21T15:19:26;7.90;99.90
19970;DHT22;10146;47.754;9.566;2023-11-21T15:21:53;7.90;99.90
19970;DHT22;10146;47.754;9.566;2023-11-21T15:24:19;7.90;99.90
19970;DHT22;10146;47.754;9.566;2023-11-21T15:26:44;7.90;99.90
19970;DHT22;10146;47.754;9.566;2023-11-21T15:29:10;7.80;99.90
19970;DHT22;10146;47.754;9.566;2023-11-21T15:31:36;7.80;99.90
19970;DHT22;10146;47.754;9.566;2023-11-21T15:34:03;7.70;99.90
19970;DHT22;10146;47.754;9.566;2023-11-21T15:36:30;7.60;99.90
19970;DHT22;10146;47.754;9.566;2023-11-21T15:38:56;7.60;99.90
19970;DHT22;10146;47.754;9.566;2023-11-21T15:41:22;7.70;99.90
19970;DHT22;10146;47.754;9.566;2023-11-21T15:43:47;7.70;99.90
19970;DHT22;10146;47.754;9.566;2023-11-21T15:46:15;7.60;99.90
19970;DHT22;10146;47.754;9.566;2023-11-21T15:48:41;7.60;99.90
19970;DHT22;10146;47.754;9.566;2023-11-21T15:51:15;7.60;99.90
19970;DHT22;10146;47.754;9.566;2023-11-21T15:53:41;7.50;99.90